sensor_id;sensor_type;location;lat;lon;timestamp;pressure;altitude;pressure_sealevel;temperature;humidity
6413;BME280;3239;48.714;9.472;2023-05-09T00:00:14;99004.84;;;13.01;100.00
6413;BME280;3239;48.714;9.472;2023-05-09T00:02:41;99009.38;;;12.99;100.00
6413;BME280;3239;48.714;9.472;2023-05-09T00:05:11;99005.66;;;12.96;100.00
6413;BME280;3239;48.714;9.472;2023-05-09T00:07:37;99010.44;;;12.90;100.00
6413;BME280;3239;48.714;9.472;2023-05-09T00:10:03;99005.03;;;12.85;100.00
6413;BME280;3239;48.714;9.472;2023-05-09T00:12:29;99003.84;;;12.80;100.00
6413;BME280;3239;48.714;9.472;2023-05-09T00:14:55;98997.59;;;12.80;100.00
6413;BME280;3239;48.714;9.472;2023-05-09T00:17:22;98998.59;;;12.77;100.00
6413;BME280;3239;48.714;9.472;2023-05-09T00:19:49;98995.72;;;12.69;100.00
6413;BME280;3239;48.714;9.472;2023-05-09T00:22:16;98987.47;;;12.69;100.00
6413;BME280;3239;48.714;9.472;2023-05-09T00:24:43;98991.47;;;12.68;100.00
6413;BME280;3239;48.714;9.472;2023-05-09T00:27:08;98984.28;;;12.65;100.00
6413;BME280;3239;48.714;9.472;2023-05-09T00:29:34;98989.38;;;12.56;100.00
6413;BME280;3239;48.714;9.472;2023-05-09T00:32:00;98985.88;;;12.55;100.00
6413;BME280;3239;48.714;9.472;2023-05-09T00:34:26;98984.16;;;12.52;100.00
6413;BME280;3239;48.714;9.472;2023-05-09T00:36:51;98985.22;;;12.49;100.00
6413;BME280;3239;48.714;9.472;2023-05-09T00:39:17;98981.19;;;12.50;100.00
6413;BME280;3239;48.714;9.472;2023-05-09T00:41:43;98976.72;;;12.47;100.00
6413;BME280;3239;48.714;9.472;2023-05-09T00:44:09;98986.03;;;12.44;100.00
6413;BME280;3239;48.714;9.472;2023-05-09T00:46:35;98981.78;;;12.43;100.00
6413;BME280;3239;48.714;9.472;2023-05-09T00:49:01;98981.31;;;12.39;100.00
6413;BME280;3239;48.714;9.472;2023-05-09T00:51:27;98980.88;;;12.35;100.00
6413;BME280;3239;48.714;9.472;2023-05-09T00:53:53;98983.81;;;12.37;100.00
6413;BME280;3239;48.714;9.472;2023-05-09T00:56:19;98990.28;;;12.40;100.00
6413;BME280;3239;48.714;9.472;2023-05-09T00:58:46;98993.34;;;12.36;100.00
6413;BME280;3239;48.714;9.472;2023-05-09T01:01:12;98993.28;;;12.42;100.00
6413;BME280;3239;48.714;9.472;2023-05-09T01:03:38;98987.53;;;12.40;100.00
6413;BME280;3239;48.714;9.472;2023-05-09T01:06:26;98981.84;;;12.38;100.00
6413;BME280;3239;48.714;9.472;2023-05-09T01:15:44;98972.69;;;12.30;100.00
6413;BME280;3239;48.714;9.472;2023-05-09T01:20:42;98974.00;;;12.23;100.00
6413;BME280;3239;48.714;9.472;2023-05-09T01:26:05;98976.34;;;12.14;100.00
6413;BME280;3239;48.714;9.472;2023-05-09T01:31:07;98979.06;;;12.14;100.00
6413;BME280;3239;48.714;9.472;2023-05-09T01:33:38;98977.66;;;12.07;100.00
6413;BME280;3239;48.714;9.472;2023-05-09T01:36:12;98985.22;;;12.01;100.00
6413;BME280;3239;48.714;9.472;2023-05-09T01:38:42;98977.50;;;12.00;100.00
6413;BME280;3239;48.714;9.472;2023-05-09T01:41:10;98984.19;;;12.04;100.00
6413;BME280;3239;48.714;9.472;2023-05-09T01:43:37;98976.97;;;12.01;100.00
6413;BME280;3239;48.714;9.472;2023-05-09T01:46:06;98977.50;;;12.00;100.00
6413;BME280;3239;48.714;9.472;2023-05-09T01:48:34;98972.78;;;11.95;100.00
6413;BME280;3239;48.714;9.472;2023-05-09T01:51:03;98969.28;;;11.94;100.00
6413;BME280;3239;48.714;9.472;2023-05-09T01:53:30;98965.56;;;11.92;100.00
6413;BME280;3239;48.714;9.472;2023-05-09T01:55:57;98961.34;;;11.91;100.00
6413;BME280;3239;48.714;9.472;2023-05-09T01:58:25;98962.09;;;11.91;100.00
6413;BME280;3239;48.714;9.472;2023-05-09T02:00:51;98961.13;;;11.89;100.00
6413;BME280;3239;48.714;9.472;2023-05-09T02:03:18;98955.38;;;11.87;100.00
6413;BME280;3239;48.714;9.472;2023-05-09T02:05:45;98950.41;;;11.85;100.00
6413;BME280;3239;48.714;9.472;2023-05-09T02:08:13;98953.97;;;11.80;100.00
6413;BME280;3239;48.714;9.472;2023-05-09T02:10:39;98958.47;;;11.78;100.00
6413;BME280;3239;48.714;9.472;2023-05-09T02:13:06;98947.78;;;11.74;100.00
6413;BME280;3239;48.714;9.472;2023-05-09T02:15:31;98950.00;;;11.76;100.00
6413;BME280;3239;48.714;9.472;2023-05-09T02:17:58;98936.78;;;11.74;100.00
6413;BME280;3239;48.714;9.472;2023-05-09T02:20:24;98945.06;;;11.69;100.00
6413;BME280;3239;48.714;9.472;2023-05-09T02:22:50;98945.81;;;11.69;100.00
6413;BME280;3239;48.714;9.472;2023-05-09T02:25:15;98941.03;;;11.75;100.00
6413;BME280;3239;48.714;9.472;2023-05-09T02:27:44;98944.22;;;11.79;100.00
6413;BME280;3239;48.714;9.472;2023-05-09T02:30:17;98957.78;;;11.72;100.00
6413;BME280;3239;48.714;9.472;2023-05-09T02:32:46;98958.56;;;11.67;100.00
6413;BME280;3239;48.714;9.472;2023-05-09T02:35:15;98962.81;;;11.68;100.00
6413;BME280;3239;48.714;9.472;2023-05-09T02:37:41;98965.84;;;11.64;100.00
6413;BME280;3239;48.714;9.472;2023-05-09T02:40:08;98968.09;;;11.60;100.00
6413;BME280;3239;48.714;9.472;2023-05-09T02:42:34;98962.34;;;11.58;100.00
6413;BME280;3239;48.714;9.472;2023-05-09T02:45:00;98964.09;;;11.61;100.00
6413;BME280;3239;48.714;9.472;2023-05-09T02:47:25;98958.81;;;11.63;100.00
6413;BME280;3239;48.714;9.472;2023-05-09T02:49:51;98962.84;;;11.62;100.00
6413;BME280;3239;48.714;9.472;2023-05-09T02:52:17;98961.81;;;11.65;100.00
6413;BME280;3239;48.714;9.472;2023-05-09T02:54:43;98957.06;;;11.66;100.00
6413;BME280;3239;48.714;9.472;2023-05-09T02:57:09;98957.31;;;11.68;100.00
6413;BME280;3239;48.714;9.472;2023-05-09T02:59:35;98949.38;;;11.64;100.00
6413;BME280;3239;48.714;9.472;2023-05-09T03:02:01;98935.56;;;11.70;100.00
6413;BME280;3239;48.714;9.472;2023-05-09T03:04:27;98940.38;;;11.58;100.00
6413;BME280;3239;48.714;9.472;2023-05-09T03:06:53;98943.13;;;11.58;100.00
6413;BME280;3239;48.714;9.472;2023-05-09T03:09:18;98940.38;;;11.58;100.00
6413;BME280;3239;48.714;9.472;2023-05-09T03:11:44;98938.44;;;11.53;100.00
6413;BME280;3239;48.714;9.472;2023-05-09T03:14:10;98939.25;;;11.48;100.00
6413;BME280;3239;48.714;9.472;2023-05-09T03:16:37;98936.53;;;11.43;100.00
6413;BME280;3239;48.714;9.472;2023-05-09T03:19:03;98943.50;;;11.44;100.00
6413;BME280;3239;48.714;9.472;2023-05-09T03:21:29;98944.81;;;11.37;100.00
6413;BME280;3239;48.714;9.472;2023-05-09T03:23:56;98945.34;;;11.30;100.00
6413;BME280;3239;48.714;9.472;2023-05-09T03:26:22;98933.88;;;11.32;100.00
6413;BME280;3239;48.714;9.472;2023-05-09T03:28:48;98934.09;;;11.34;100.00
6413;BME280;3239;48.714;9.472;2023-05-09T03:31:14;98919.94;;;11.30;100.00
6413;BME280;3239;48.714;9.472;2023-05-09T03:33:40;98925.91;;;11.28;100.00
6413;BME280;3239;48.714;9.472;2023-05-09T03:36:06;98919.47;;;11.26;100.00
6413;BME280;3239;48.714;9.472;2023-05-09T03:38:32;98921.44;;;11.25;100.00
6413;BME280;3239;48.714;9.472;2023-05-09T03:40:58;98920.19;;;11.26;100.00
6413;BME280;3239;48.714;9.472;2023-05-09T03:43:23;98919.69;;;11.28;100.00
6413;BME280;3239;48.714;9.472;2023-05-09T03:45:49;98916.44;;;11.29;100.00
6413;BME280;3239;48.714;9.472;2023-05-09T03:48:15;98916.66;;;11.31;100.00
6413;BME280;3239;48.714;9.472;2023-05-09T03:50:41;98911.16;;;11.31;100.00
6413;BME280;3239;48.714;9.472;2023-05-09T03:53:06;98912.41;;;11.36;100.00
6413;BME280;3239;48.714;9.472;2023-05-09T03:55:32;98918.38;;;11.34;100.00
6413;BME280;3239;48.714;9.472;2023-05-09T03:57:58;98925.06;;;11.39;100.00
6413;BME280;3239;48.714;9.472;2023-05-09T04:00:24;98923.88;;;11.34;100.00
6413;BME280;3239;48.714;9.472;2023-05-09T04:02:51;98921.34;;;11.36;100.00
6413;BME280;3239;48.714;9.472;2023-05-09T04:05:17;98919.38;;;11.37;100.00
6413;BME280;3239;48.714;9.472;2023-05-09T04:07:43;98927.09;;;11.38;100.00
6413;BME280;3239;48.714;9.472;2023-05-09T04:10:10;98921.06;;;11.40;100.00
6413;BME280;3239;48.714;9.472;2023-05-09T04:12:36;98927.78;;;11.44;100.00
6413;BME280;3239;48.714;9.472;2023-05-09T04:15:01;98935.50;;;11.46;100.00
6413;BME280;3239;48.714;9.472;2023-05-09T04:17:28;98938.19;;;11.51;100.00
6413;BME280;3239;48.714;9.472;2023-05-09T04:19:53;98940.44;;;11.53;100.00
6413;BME280;3239;48.714;9.472;2023-05-09T04:22:19;98933.94;;;11.56;100.00
6413;BME280;3239;48.714;9.472;2023-05-09T04:24:45;98941.91;;;11.59;100.00
6413;BME280;3239;48.714;9.472;2023-05-09T04:27:10;98930.94;;;11.59;100.00
6413;BME280;3239;48.714;9.472;2023-05-09T04:29:36;98937.59;;;11.69;100.00
6413;BME280;3239;48.714;9.472;2023-05-09T04:32:04;98929.41;;;11.58;100.00
6413;BME280;3239;48.714;9.472;2023-05-09T04:34:30;98918.81;;;11.73;100.00
6413;BME280;3239;48.714;9.472;2023-05-09T04:36:56;98928.09;;;11.94;100.00
6413;BME280;3239;48.714;9.472;2023-05-09T04:39:22;98927.47;;;12.07;100.00
6413;BME280;3239;48.714;9.472;2023-05-09T04:41:48;98921.88;;;11.94;100.00
6413;BME280;3239;48.714;9.472;2023-05-09T04:44:15;98924.38;;;11.92;100.00
6413;BME280;3239;48.714;9.472;2023-05-09T04:46:41;98920.53;;;11.76;100.00
6413;BME280;3239;48.714;9.472;2023-05-09T04:49:08;98907.78;;;11.49;100.00
6413;BME280;3239;48.714;9.472;2023-05-09T04:51:33;98924.25;;;11.49;100.00
6413;BME280;3239;48.714;9.472;2023-05-09T04:53:59;98926.44;;;11.56;100.00
6413;BME280;3239;48.714;9.472;2023-05-09T04:56:25;98928.56;;;11.74;100.00
6413;BME280;3239;48.714;9.472;2023-05-09T04:58:51;98919.50;;;11.79;100.00
6413;BME280;3239;48.714;9.472;2023-05-09T05:01:17;98917.53;;;12.04;100.00
6413;BME280;3239;48.714;9.472;2023-05-09T05:03:43;98916.47;;;12.31;100.00
6413;BME280;3239;48.714;9.472;2023-05-09T05:06:10;98916.00;;;12.27;100.00
6413;BME280;3239;48.714;9.472;2023-05-09T05:08:36;98913.44;;;12.10;100.00
6413;BME280;3239;48.714;9.472;2023-05-09T05:11:02;98917.28;;;12.02;100.00
6413;BME280;3239;48.714;9.472;2023-05-09T05:13:28;98920.06;;;12.20;100.00
6413;BME280;3239;48.714;9.472;2023-05-09T05:15:53;98913.31;;;12.21;100.00
6413;BME280;3239;48.714;9.472;2023-05-09T05:18:21;98905.91;;;12.35;100.00
6413;BME280;3239;48.714;9.472;2023-05-09T05:20:46;98901.69;;;12.34;100.00
6413;BME280;3239;48.714;9.472;2023-05-09T05:23:12;98891.81;;;12.62;100.00
6413;BME280;3239;48.714;9.472;2023-05-09T05:25:38;98896.88;;;12.77;100.00
6413;BME280;3239;48.714;9.472;2023-05-09T05:28:04;98874.34;;;12.97;100.00
6413;BME280;3239;48.714;9.472;2023-05-09T05:30:29;98877.06;;;13.15;100.00
6413;BME280;3239;48.714;9.472;2023-05-09T05:32:55;98866.06;;;13.15;100.00
6413;BME280;3239;48.714;9.472;2023-05-09T05:35:21;98852.94;;;13.53;100.00
6413;BME280;3239;48.714;9.472;2023-05-09T05:37:48;98836.50;;;13.34;100.00
6413;BME280;3239;48.714;9.472;2023-05-09T05:40:13;98828.47;;;13.49;100.00
6413;BME280;3239;48.714;9.472;2023-05-09T05:42:40;98819.47;;;13.49;100.00
6413;BME280;3239;48.714;9.472;2023-05-09T05:45:07;98808.66;;;13.51;100.00
6413;BME280;3239;48.714;9.472;2023-05-09T05:47:34;98796.91;;;13.63;100.00
6413;BME280;3239;48.714;9.472;2023-05-09T05:50:03;98790.13;;;13.77;100.00
6413;BME280;3239;48.714;9.472;2023-05-09T05:52:29;98786.84;;;13.92;100.00
6413;BME280;3239;48.714;9.472;2023-05-09T05:54:55;98761.09;;;13.89;100.00
6413;BME280;3239;48.714;9.472;2023-05-09T05:57:21;98743.81;;;14.02;100.00
6413;BME280;3239;48.714;9.472;2023-05-09T05:59:48;98731.59;;;14.10;100.00
6413;BME280;3239;48.714;9.472;2023-05-09T06:02:15;98715.88;;;14.31;100.00
6413;BME280;3239;48.714;9.472;2023-05-09T06:04:41;98695.78;;;14.23;100.00
6413;BME280;3239;48.714;9.472;2023-05-09T06:07:07;98681.72;;;14.55;100.00
6413;BME280;3239;48.714;9.472;2023-05-09T06:09:33;98663.38;;;14.37;100.00
6413;BME280;3239;48.714;9.472;2023-05-09T06:11:59;98647.34;;;14.56;100.00
6413;BME280;3239;48.714;9.472;2023-05-09T06:14:25;98614.34;;;14.91;100.00
6413;BME280;3239;48.714;9.472;2023-05-09T06:16:50;98601.19;;;15.05;100.00
6413;BME280;3239;48.714;9.472;2023-05-09T06:19:17;98581.91;;;15.20;100.00
6413;BME280;3239;48.714;9.472;2023-05-09T06:21:43;98561.41;;;15.36;100.00
6413;BME280;3239;48.714;9.472;2023-05-09T06:24:09;98535.94;;;15.73;100.00
6413;BME280;3239;48.714;9.472;2023-05-09T06:26:35;98521.94;;;16.01;100.00
6413;BME280;3239;48.714;9.472;2023-05-09T06:29:02;98502.94;;;16.35;100.00
6413;BME280;3239;48.714;9.472;2023-05-09T06:31:28;98476.06;;;15.90;100.00
6413;BME280;3239;48.714;9.472;2023-05-09T06:33:54;98462.63;;;15.79;100.00
6413;BME280;3239;48.714;9.472;2023-05-09T06:36:20;98457.09;;;15.87;100.00
6413;BME280;3239;48.714;9.472;2023-05-09T06:38:45;98455.41;;;15.99;100.00
6413;BME280;3239;48.714;9.472;2023-05-09T06:41:11;98450.63;;;16.14;100.00
6413;BME280;3239;48.714;9.472;2023-05-09T06:43:37;98439.56;;;16.22;100.00
6413;BME280;3239;48.714;9.472;2023-05-09T06:46:03;98427.88;;;16.53;100.00
6413;BME280;3239;48.714;9.472;2023-05-09T06:48:29;98415.84;;;16.73;100.00
6413;BME280;3239;48.714;9.472;2023-05-09T06:50:54;98397.22;;;17.06;100.00
6413;BME280;3239;48.714;9.472;2023-05-09T06:53:20;98393.75;;;16.98;100.00
6413;BME280;3239;48.714;9.472;2023-05-09T06:55:46;98376.13;;;17.67;100.00
6413;BME280;3239;48.714;9.472;2023-05-09T06:58:12;98360.19;;;17.75;100.00
6413;BME280;3239;48.714;9.472;2023-05-09T07:00:38;98335.56;;;17.96;100.00
6413;BME280;3239;48.714;9.472;2023-05-09T07:03:03;98330.44;;;18.26;100.00
6413;BME280;3239;48.714;9.472;2023-05-09T07:05:32;98320.66;;;18.25;100.00
6413;BME280;3239;48.714;9.472;2023-05-09T07:07:58;98324.22;;;17.84;100.00
6413;BME280;3239;48.714;9.472;2023-05-09T07:10:24;98325.94;;;18.48;100.00
6413;BME280;3239;48.714;9.472;2023-05-09T07:12:50;98307.81;;;19.00;100.00
6413;BME280;3239;48.714;9.472;2023-05-09T07:15:16;98312.75;;;18.65;100.00
6413;BME280;3239;48.714;9.472;2023-05-09T07:17:41;98311.06;;;19.06;100.00
6413;BME280;3239;48.714;9.472;2023-05-09T07:20:07;98293.69;;;18.52;100.00
6413;BME280;3239;48.714;9.472;2023-05-09T07:22:33;98287.53;;;19.43;100.00
6413;BME280;3239;48.714;9.472;2023-05-09T07:24:59;98288.16;;;19.15;100.00
6413;BME280;3239;48.714;9.472;2023-05-09T07:27:25;98275.81;;;19.35;100.00
6413;BME280;3239;48.714;9.472;2023-05-09T07:29:51;98290.28;;;18.71;100.00
6413;BME280;3239;48.714;9.472;2023-05-09T07:32:20;98278.28;;;18.95;100.00
6413;BME280;3239;48.714;9.472;2023-05-09T07:34:46;98280.81;;;18.47;100.00
6413;BME280;3239;48.714;9.472;2023-05-09T07:37:12;98282.59;;;18.52;100.00
6413;BME280;3239;48.714;9.472;2023-05-09T07:39:38;98272.75;;;18.25;100.00
6413;BME280;3239;48.714;9.472;2023-05-09T07:42:04;98275.38;;;17.89;100.00
6413;BME280;3239;48.714;9.472;2023-05-09T07:44:30;98274.06;;;18.24;100.00
6413;BME280;3239;48.714;9.472;2023-05-09T07:46:55;98265.81;;;18.50;100.00
6413;BME280;3239;48.714;9.472;2023-05-09T07:49:24;98263.94;;;18.36;100.00
6413;BME280;3239;48.714;9.472;2023-05-09T07:51:50;98253.69;;;18.12;100.00
6413;BME280;3239;48.714;9.472;2023-05-09T07:54:16;98253.88;;;17.80;100.00
6413;BME280;3239;48.714;9.472;2023-05-09T07:56:42;98253.44;;;17.49;100.00
6413;BME280;3239;48.714;9.472;2023-05-09T07:59:07;98268.94;;;17.52;100.00
6413;BME280;3239;48.714;9.472;2023-05-09T08:01:33;98267.25;;;17.74;100.00
6413;BME280;3239;48.714;9.472;2023-05-09T08:03:59;98242.44;;;18.53;100.00
6413;BME280;3239;48.714;9.472;2023-05-09T08:06:25;98239.25;;;18.57;100.00
6413;BME280;3239;48.714;9.472;2023-05-09T08:08:51;98217.47;;;18.89;100.00
6413;BME280;3239;48.714;9.472;2023-05-09T08:11:17;98215.00;;;19.48;100.00
6413;BME280;3239;48.714;9.472;2023-05-09T08:13:43;98200.06;;;19.63;100.00
6413;BME280;3239;48.714;9.472;2023-05-09T08:16:09;98198.00;;;20.30;100.00
6413;BME280;3239;48.714;9.472;2023-05-09T08:18:35;98181.22;;;21.19;100.00
6413;BME280;3239;48.714;9.472;2023-05-09T08:21:00;98174.22;;;21.09;100.00
6413;BME280;3239;48.714;9.472;2023-05-09T08:23:26;98172.94;;;20.70;100.00
6413;BME280;3239;48.714;9.472;2023-05-09T08:25:54;98161.72;;;21.40;100.00
6413;BME280;3239;48.714;9.472;2023-05-09T08:28:21;98156.16;;;20.89;100.00
6413;BME280;3239;48.714;9.472;2023-05-09T08:30:51;98152.78;;;20.90;100.00
6413;BME280;3239;48.714;9.472;2023-05-09T08:33:17;98143.63;;;20.69;100.00
6413;BME280;3239;48.714;9.472;2023-05-09T08:35:43;98141.97;;;21.48;100.00
6413;BME280;3239;48.714;9.472;2023-05-09T08:38:09;98140.50;;;22.00;100.00
6413;BME280;3239;48.714;9.472;2023-05-09T08:40:36;98133.38;;;21.44;100.00
6413;BME280;3239;48.714;9.472;2023-05-09T08:43:05;98130.78;;;21.36;100.00
6413;BME280;3239;48.714;9.472;2023-05-09T08:45:34;98124.09;;;21.62;100.00
6413;BME280;3239;48.714;9.472;2023-05-09T08:48:05;98121.59;;;21.45;100.00
6413;BME280;3239;48.714;9.472;2023-05-09T08:50:32;98109.53;;;21.31;100.00
6413;BME280;3239;48.714;9.472;2023-05-09T08:53:00;98108.66;;;21.82;100.00
6413;BME280;3239;48.714;9.472;2023-05-09T08:55:25;98101.72;;;20.97;100.00
6413;BME280;3239;48.714;9.472;2023-05-09T08:57:52;98090.78;;;20.90;100.00
6413;BME280;3239;48.714;9.472;2023-05-09T09:00:18;98091.06;;;20.63;100.00
6413;BME280;3239;48.714;9.472;2023-05-09T09:02:45;98093.06;;;20.11;100.00
6413;BME280;3239;48.714;9.472;2023-05-09T09:05:12;98090.94;;;20.61;100.00
6413;BME280;3239;48.714;9.472;2023-05-09T09:07:39;98092.44;;;21.58;100.00
6413;BME280;3239;48.714;9.472;2023-05-09T09:10:07;98093.09;;;22.23;100.00
6413;BME280;3239;48.714;9.472;2023-05-09T09:12:35;98086.25;;;21.92;100.00
6413;BME280;3239;48.714;9.472;2023-05-09T09:15:04;98079.28;;;22.25;100.00
6413;BME280;3239;48.714;9.472;2023-05-09T09:17:32;98079.59;;;22.43;100.00
6413;BME280;3239;48.714;9.472;2023-05-09T09:20:02;98072.28;;;22.95;100.00
6413;BME280;3239;48.714;9.472;2023-05-09T09:22:34;98065.78;;;23.77;100.00
6413;BME280;3239;48.714;9.472;2023-05-09T09:25:00;98070.88;;;23.81;100.00
6413;BME280;3239;48.714;9.472;2023-05-09T09:27:27;98053.59;;;24.36;100.00
6413;BME280;3239;48.714;9.472;2023-05-09T09:29:53;98051.22;;;22.58;100.00
6413;BME280;3239;48.714;9.472;2023-05-09T09:32:19;98050.09;;;22.86;100.00
6413;BME280;3239;48.714;9.472;2023-05-09T14:22:07;97563.19;;;23.68;100.00
6413;BME280;3239;48.714;9.472;2023-05-09T14:24:33;97552.66;;;23.24;100.00
6413;BME280;3239;48.714;9.472;2023-05-09T14:27:00;97547.78;;;23.54;100.00
6413;BME280;3239;48.714;9.472;2023-05-09T14:29:26;97542.84;;;23.23;100.00
6413;BME280;3239;48.714;9.472;2023-05-09T14:31:52;97542.22;;;23.25;100.00
6413;BME280;3239;48.714;9.472;2023-05-09T14:34:18;97536.13;;;23.15;100.00
6413;BME280;3239;48.714;9.472;2023-05-09T14:36:44;97540.75;;;22.68;100.00
6413;BME280;3239;48.714;9.472;2023-05-09T14:39:10;97537.72;;;22.77;100.00
6413;BME280;3239;48.714;9.472;2023-05-09T14:41:36;97529.34;;;22.77;100.00
6413;BME280;3239;48.714;9.472;2023-05-09T14:44:02;97531.56;;;22.52;100.00
6413;BME280;3239;48.714;9.472;2023-05-09T14:46:28;97528.38;;;22.44;100.00
6413;BME280;3239;48.714;9.472;2023-05-09T14:48:53;97539.84;;;22.50;100.00
6413;BME280;3239;48.714;9.472;2023-05-09T14:51:21;97539.53;;;22.44;100.00
6413;BME280;3239;48.714;9.472;2023-05-09T14:53:47;97535.34;;;22.04;100.00
6413;BME280;3239;48.714;9.472;2023-05-09T14:56:13;97535.50;;;21.95;100.00
6413;BME280;3239;48.714;9.472;2023-05-09T14:58:39;97542.03;;;21.99;100.00
6413;BME280;3239;48.714;9.472;2023-05-09T15:01:04;97539.38;;;22.15;100.00
6413;BME280;3239;48.714;9.472;2023-05-09T15:03:30;97523.69;;;22.48;100.00
6413;BME280;3239;48.714;9.472;2023-05-09T15:05:56;97529.75;;;22.85;100.00
6413;BME280;3239;48.714;9.472;2023-05-09T15:08:23;97528.81;;;22.94;100.00
6413;BME280;3239;48.714;9.472;2023-05-09T15:10:49;97530.84;;;22.51;100.00
6413;BME280;3239;48.714;9.472;2023-05-09T15:13:15;97513.31;;;22.91;100.00
6413;BME280;3239;48.714;9.472;2023-05-09T15:15:41;97510.03;;;23.24;100.00
6413;BME280;3239;48.714;9.472;2023-05-09T15:18:07;97504.81;;;23.61;100.00
6413;BME280;3239;48.714;9.472;2023-05-09T15:20:37;97517.81;;;23.70;100.00
6413;BME280;3239;48.714;9.472;2023-05-09T15:23:03;97510.28;;;24.19;100.00
6413;BME280;3239;48.714;9.472;2023-05-09T15:25:32;97504.09;;;24.53;100.00
6413;BME280;3239;48.714;9.472;2023-05-09T15:27:58;97501.91;;;24.52;100.00
6413;BME280;3239;48.714;9.472;2023-05-09T15:30:24;97480.81;;;23.87;100.00
6413;BME280;3239;48.714;9.472;2023-05-09T15:32:49;97484.34;;;23.87;100.00
6413;BME280;3239;48.714;9.472;2023-05-09T15:35:15;97477.84;;;23.67;100.00
6413;BME280;3239;48.714;9.472;2023-05-09T15:37:43;97477.09;;;23.82;100.00
6413;BME280;3239;48.714;9.472;2023-05-09T15:40:09;97490.75;;;24.21;100.00
6413;BME280;3239;48.714;9.472;2023-05-09T15:42:37;97485.97;;;24.39;100.00
6413;BME280;3239;48.714;9.472;2023-05-09T15:45:03;97484.38;;;24.03;100.00
6413;BME280;3239;48.714;9.472;2023-05-09T15:47:29;97478.94;;;23.76;100.00
6413;BME280;3239;48.714;9.472;2023-05-09T15:49:55;97476.03;;;23.58;100.00
6413;BME280;3239;48.714;9.472;2023-05-09T15:52:21;97478.19;;;23.75;100.00
6413;BME280;3239;48.714;9.472;2023-05-09T15:54:46;97473.84;;;23.57;100.00
6413;BME280;3239;48.714;9.472;2023-05-09T15:57:12;97476.72;;;23.59;100.00
6413;BME280;3239;48.714;9.472;2023-05-09T15:59:38;97476.25;;;23.33;100.00
6413;BME280;3239;48.714;9.472;2023-05-09T16:02:05;97476.31;;;23.35;100.00
6413;BME280;3239;48.714;9.472;2023-05-09T16:04:31;97466.69;;;23.38;100.00
6413;BME280;3239;48.714;9.472;2023-05-09T16:06:57;97466.16;;;23.13;100.00
6413;BME280;3239;48.714;9.472;2023-05-09T16:09:25;97458.16;;;22.92;100.00
6413;BME280;3239;48.714;9.472;2023-05-09T16:11:51;97468.31;;;22.85;100.00
6413;BME280;3239;48.714;9.472;2023-05-09T16:14:17;97463.19;;;22.66;100.00
6413;BME280;3239;48.714;9.472;2023-05-09T16:16:43;97456.06;;;22.36;100.00
6413;BME280;3239;48.714;9.472;2023-05-09T16:19:08;97442.66;;;22.33;100.00
6413;BME280;3239;48.714;9.472;2023-05-09T16:21:35;97462.06;;;22.04;100.00
6413;BME280;3239;48.714;9.472;2023-05-09T16:24:03;97448.72;;;22.16;100.00
6413;BME280;3239;48.714;9.472;2023-05-09T16:26:29;97450.28;;;21.92;100.00
6413;BME280;3239;48.714;9.472;2023-05-09T16:28:55;97449.69;;;21.93;100.00
6413;BME280;3239;48.714;9.472;2023-05-09T16:31:21;97453.25;;;21.82;100.00
6413;BME280;3239;48.714;9.472;2023-05-09T16:33:51;97452.00;;;21.72;100.00
6413;BME280;3239;48.714;9.472;2023-05-09T16:36:17;97444.00;;;21.66;100.00
6413;BME280;3239;48.714;9.472;2023-05-09T16:38:43;97447.50;;;21.53;100.00
6413;BME280;3239;48.714;9.472;2023-05-09T16:41:08;97447.38;;;21.38;100.00
6413;BME280;3239;48.714;9.472;2023-05-09T16:43:34;97444.97;;;21.32;100.00
6413;BME280;3239;48.714;9.472;2023-05-09T16:46:00;97447.38;;;21.13;100.00
6413;BME280;3239;48.714;9.472;2023-05-09T16:48:26;97450.50;;;20.94;100.00
6413;BME280;3239;48.714;9.472;2023-05-09T16:50:51;97462.66;;;20.75;100.00
6413;BME280;3239;48.714;9.472;2023-05-09T16:53:19;97479.41;;;20.52;100.00
6413;BME280;3239;48.714;9.472;2023-05-09T16:55:47;97491.91;;;20.40;100.00
6413;BME280;3239;48.714;9.472;2023-05-09T16:58:14;97496.03;;;20.27;100.00
6413;BME280;3239;48.714;9.472;2023-05-09T17:00:40;97502.31;;;20.16;100.00
6413;BME280;3239;48.714;9.472;2023-05-09T17:03:05;97497.81;;;20.00;100.00
6413;BME280;3239;48.714;9.472;2023-05-09T17:05:32;97503.72;;;19.83;100.00
6413;BME280;3239;48.714;9.472;2023-05-09T17:07:58;97506.59;;;19.62;100.00
6413;BME280;3239;48.714;9.472;2023-05-09T17:10:24;97526.28;;;19.54;100.00
6413;BME280;3239;48.714;9.472;2023-05-09T17:12:50;97549.03;;;19.30;100.00
6413;BME280;3239;48.714;9.472;2023-05-09T17:15:16;97559.66;;;19.12;100.00
6413;BME280;3239;48.714;9.472;2023-05-09T17:17:42;97596.59;;;18.73;100.00
6413;BME280;3239;48.714;9.472;2023-05-09T17:20:08;97639.72;;;18.34;100.00
6413;BME280;3239;48.714;9.472;2023-05-09T17:22:36;97673.00;;;18.34;100.00
6413;BME280;3239;48.714;9.472;2023-05-09T17:25:03;97718.13;;;18.15;100.00
6413;BME280;3239;48.714;9.472;2023-05-09T17:27:29;97766.28;;;17.91;100.00
6413;BME280;3239;48.714;9.472;2023-05-09T17:29:55;97806.78;;;17.68;100.00
6413;BME280;3239;48.714;9.472;2023-05-09T17:32:21;97833.16;;;17.50;100.00
6413;BME280;3239;48.714;9.472;2023-05-09T17:34:46;97826.63;;;17.28;100.00
6413;BME280;3239;48.714;9.472;2023-05-09T17:37:12;97831.13;;;17.14;100.00
6413;BME280;3239;48.714;9.472;2023-05-09T17:39:38;97819.28;;;17.14;100.00
6413;BME280;3239;48.714;9.472;2023-05-09T17:42:04;97826.56;;;17.09;100.00
6413;BME280;3239;48.714;9.472;2023-05-09T17:44:31;97824.94;;;17.06;100.00
6413;BME280;3239;48.714;9.472;2023-05-09T17:46:57;97832.00;;;17.17;100.00
6413;BME280;3239;48.714;9.472;2023-05-09T17:49:23;97833.84;;;17.05;100.00
6413;BME280;3239;48.714;9.472;2023-05-09T17:51:52;97845.38;;;17.11;100.00
6413;BME280;3239;48.714;9.472;2023-05-09T17:54:20;97838.34;;;16.74;100.00
6413;BME280;3239;48.714;9.472;2023-05-09T17:56:46;97842.28;;;16.54;100.00
6413;BME280;3239;48.714;9.472;2023-05-09T17:59:18;97858.69;;;16.52;100.00
6413;BME280;3239;48.714;9.472;2023-05-09T18:01:43;97888.72;;;16.55;100.00
6413;BME280;3239;48.714;9.472;2023-05-09T18:04:09;97911.22;;;16.35;100.00
6413;BME280;3239;48.714;9.472;2023-05-09T18:06:35;97922.13;;;16.33;100.00